Terminal Aerodrome Forecast
Issued by NWS

Home | Current Version | Previous Version | Text Only | Print | Product List | Glossary On
Versions: 1 2 3 4 5 6 7 8 9 10 11 12 13 14 15 16 17 18 19 20 21 22 23 24 25
000
FTUS46 KSEW 240908 AAA
TAFSEA
TAF AMD
KSEA 240908Z 2409/2512 VRB03KT P6SM VCFG FEW020
     FM241200 VRB03KT 5SM BR SCT020
     FM241900 VRB03KT 6SM BR OVC009
     FM242100 VRB03KT P6SM FEW013 BKN120
     FM250000 VRB03KT P6SM FEW060 BKN120=

USA.gov is the U.S. government's official web portal to all federal, state and local government web resources and services.